createdAt,value
2023-04-25T00:00:18.451Z,100.00
2023-04-25T00:02:45.040Z,100.00
2023-04-25T00:05:12.049Z,100.00
2023-04-25T00:07:38.714Z,100.00
2023-04-25T00:10:05.958Z,100.00
2023-04-25T00:12:32.375Z,100.00
2023-04-25T00:14:59.122Z,100.00
2023-04-25T00:17:26.571Z,100.00
2023-04-25T00:19:53.543Z,100.00
2023-04-25T00:22:19.936Z,100.00
2023-04-25T00:24:46.313Z,100.00
2023-04-25T00:27:12.837Z,100.00
2023-04-25T00:29:39.309Z,100.00
2023-04-25T00:32:05.893Z,100.00
2023-04-25T00:34:32.365Z,100.00
2023-04-25T00:36:58.835Z,100.00
2023-04-25T00:39:25.256Z,100.00
2023-04-25T00:41:54.160Z,100.00
2023-04-25T00:44:21.079Z,100.00
2023-04-25T00:46:48.605Z,100.00
2023-04-25T00:49:17.212Z,100.00
2023-04-25T00:51:45.717Z,100.00
2023-04-25T00:54:13.069Z,100.00
2023-04-25T00:56:39.683Z,100.00
2023-04-25T00:59:06.529Z,100.00
2023-04-25T01:01:33.370Z,100.00
2023-04-25T01:04:00.492Z,100.00
2023-04-25T01:06:26.969Z,100.00
2023-04-25T01:08:53.354Z,100.00
2023-04-25T01:11:19.775Z,100.00
2023-04-25T01:13:46.292Z,100.00
2023-04-25T01:16:13.875Z,100.00
2023-04-25T01:18:41.382Z,100.00
2023-04-25T01:21:08.657Z,100.00
2023-04-25T01:23:35.192Z,100.00
2023-04-25T01:26:01.951Z,100.00
2023-04-25T01:28:28.903Z,100.00
2023-04-25T01:30:55.751Z,100.00
2023-04-25T01:33:22.658Z,100.00
2023-04-25T01:35:49.099Z,100.00
2023-04-25T01:38:15.727Z,100.00
2023-04-25T01:40:42.413Z,100.00
2023-04-25T01:43:13.097Z,100.00
2023-04-25T01:45:42.519Z,100.00
2023-04-25T01:48:10.744Z,100.00
2023-04-25T01:50:38.087Z,100.00
2023-04-25T01:53:05.192Z,100.00
2023-04-25T01:55:31.611Z,100.00
2023-04-25T01:57:58.047Z,100.00
2023-04-25T02:00:24.487Z,100.00
2023-04-25T02:02:51.818Z,100.00
2023-04-25T02:05:18.741Z,100.00
2023-04-25T02:07:45.106Z,100.00
2023-04-25T02:10:11.507Z,100.00
2023-04-25T02:12:38.713Z,100.00
2023-04-25T02:15:05.452Z,100.00
2023-04-25T02:17:32.777Z,100.00
2023-04-25T02:19:59.167Z,100.00
2023-04-25T02:22:25.567Z,100.00
2023-04-25T02:24:52.013Z,100.00
2023-04-25T02:27:18.485Z,100.00
2023-04-25T02:29:44.906Z,100.00
2023-04-25T02:32:11.649Z,100.00
2023-04-25T02:34:38.536Z,100.00
2023-04-25T02:37:04.976Z,100.00
2023-04-25T02:39:31.360Z,100.00
2023-04-25T02:41:57.827Z,100.00
2023-04-25T02:44:24.230Z,100.00
2023-04-25T02:46:50.771Z,100.00
2023-04-25T02:49:17.208Z,100.00
2023-04-25T02:51:43.649Z,100.00
2023-04-25T02:54:10.083Z,100.00
2023-04-25T02:56:36.483Z,100.00
2023-04-25T02:59:02.848Z,100.00
2023-04-25T03:01:29.221Z,100.00
2023-04-25T03:03:55.869Z,100.00
2023-04-25T03:06:22.359Z,100.00
2023-04-25T03:08:48.753Z,100.00
2023-04-25T03:11:15.121Z,100.00
2023-04-25T03:13:41.499Z,100.00
2023-04-25T03:16:07.931Z,100.00
2023-04-25T03:18:34.396Z,100.00
2023-04-25T03:21:00.822Z,100.00
2023-04-25T03:23:27.259Z,100.00
2023-04-25T03:25:53.795Z,100.00
2023-04-25T03:28:20.981Z,100.00
2023-04-25T03:30:47.386Z,100.00
2023-04-25T03:33:13.826Z,100.00
2023-04-25T03:35:40.308Z,100.00
2023-04-25T03:38:06.788Z,100.00
2023-04-25T03:40:33.170Z,100.00
2023-04-25T03:42:59.551Z,100.00
2023-04-25T03:45:26.007Z,100.00
2023-04-25T03:47:52.493Z,100.00
2023-04-25T03:50:18.955Z,100.00
2023-04-25T03:52:45.351Z,100.00
2023-04-25T03:55:11.799Z,100.00
2023-04-25T03:57:38.197Z,100.00
2023-04-25T04:00:05.283Z,100.00
2023-04-25T04:02:32.346Z,100.00
2023-04-25T04:04:58.990Z,100.00
2023-04-25T04:07:25.560Z,100.00
2023-04-25T04:09:51.968Z,100.00
2023-04-25T04:12:18.363Z,100.00
2023-04-25T04:14:44.771Z,100.00
2023-04-25T04:17:11.214Z,100.00
2023-04-25T04:19:37.601Z,100.00
2023-04-25T04:22:03.977Z,100.00
2023-04-25T04:24:30.370Z,100.00
2023-04-25T04:26:57.894Z,100.00
2023-04-25T04:29:24.303Z,100.00
2023-04-25T04:31:51.623Z,100.00
2023-04-25T04:34:19.393Z,100.00
2023-04-25T04:36:47.201Z,100.00
2023-04-25T04:39:14.859Z,100.00
2023-04-25T04:41:41.487Z,100.00
2023-04-25T04:44:09.904Z,100.00
2023-04-25T04:46:38.825Z,100.00
2023-04-25T04:49:09.759Z,100.00
2023-04-25T04:51:36.553Z,100.00
2023-04-25T04:54:03.434Z,100.00
2023-04-25T04:56:31.933Z,100.00
2023-04-25T04:58:58.713Z,100.00
2023-04-25T05:01:26.330Z,100.00
2023-04-25T05:03:53.626Z,100.00
2023-04-25T05:06:20.732Z,100.00
2023-04-25T05:08:47.243Z,100.00
2023-04-25T05:11:13.632Z,100.00
2023-04-25T05:13:40.009Z,100.00
2023-04-25T05:16:06.731Z,100.00
2023-04-25T05:18:33.162Z,100.00
2023-04-25T05:20:59.519Z,100.00
2023-04-25T05:23:26.022Z,100.00
2023-04-25T05:25:52.408Z,100.00
2023-04-25T05:28:18.799Z,100.00
2023-04-25T05:30:45.255Z,100.00
2023-04-25T05:33:11.690Z,100.00
2023-04-25T05:35:38.152Z,100.00
2023-04-25T05:38:04.646Z,100.00
2023-04-25T05:40:30.978Z,100.00
2023-04-25T05:42:57.360Z,100.00
2023-04-25T05:45:24.083Z,100.00
2023-04-25T05:47:50.867Z,100.00
2023-04-25T05:50:17.361Z,100.00
2023-04-25T05:52:43.778Z,100.00
2023-04-25T05:55:10.218Z,100.00
2023-04-25T05:57:36.674Z,100.00
2023-04-25T06:00:04.251Z,100.00
2023-04-25T06:02:30.827Z,100.00
2023-04-25T06:04:57.597Z,100.00
2023-04-25T06:07:24.242Z,100.00
2023-04-25T06:09:50.680Z,100.00
2023-04-25T06:12:17.092Z,100.00
2023-04-25T06:14:43.478Z,100.00
2023-04-25T06:17:09.930Z,100.00
2023-04-25T06:19:36.848Z,100.00
2023-04-25T06:22:03.230Z,100.00
2023-04-25T06:24:30.372Z,100.00
2023-04-25T06:26:56.757Z,100.00
2023-04-25T06:29:23.218Z,100.00
2023-04-25T06:31:49.975Z,100.00
2023-04-25T06:34:16.421Z,100.00
2023-04-25T06:36:42.821Z,100.00
2023-04-25T06:39:10.015Z,100.00
2023-04-25T06:41:36.526Z,100.00
2023-04-25T06:44:02.931Z,100.00
2023-04-25T06:46:29.363Z,100.00
2023-04-25T06:48:56.276Z,100.00
2023-04-25T06:51:24.317Z,100.00
2023-04-25T06:53:51.097Z,100.00
2023-04-25T06:56:17.614Z,100.00
2023-04-25T06:58:44.490Z,100.00
2023-04-25T07:01:10.980Z,100.00
2023-04-25T07:03:38.798Z,100.00
2023-04-25T07:06:05.497Z,100.00
2023-04-25T07:08:31.916Z,100.00
2023-04-25T07:10:58.334Z,100.00
2023-04-25T07:13:24.834Z,100.00
2023-04-25T07:15:51.224Z,100.00
2023-04-25T07:18:17.606Z,100.00
2023-04-25T07:20:44.527Z,100.00
2023-04-25T07:23:11.070Z,100.00
2023-04-25T07:25:37.517Z,100.00
2023-04-25T07:28:03.880Z,100.00
2023-04-25T07:30:30.312Z,100.00
2023-04-25T07:32:56.874Z,100.00
2023-04-25T07:35:23.510Z,100.00
2023-04-25T07:37:49.914Z,100.00
2023-04-25T07:40:17.558Z,100.00
2023-04-25T07:42:44.000Z,100.00
2023-04-25T07:45:10.700Z,100.00
2023-04-25T07:47:37.326Z,100.00
2023-04-25T07:50:04.543Z,100.00
2023-04-25T07:52:30.971Z,100.00
2023-04-25T07:54:58.515Z,100.00
2023-04-25T07:57:25.325Z,100.00
2023-04-25T07:59:51.890Z,100.00
2023-04-25T08:02:18.263Z,100.00
2023-04-25T08:04:45.436Z,100.00
2023-04-25T08:07:12.006Z,100.00
2023-04-25T08:09:38.498Z,100.00
2023-04-25T08:12:05.159Z,100.00
2023-04-25T08:14:36.622Z,99.15
2023-04-25T08:17:04.613Z,94.09
2023-04-25T08:19:32.314Z,98.88
2023-04-25T08:21:58.874Z,100.00
2023-04-25T08:24:26.282Z,100.00
2023-04-25T08:26:52.927Z,98.43
2023-04-25T08:29:19.313Z,94.10
2023-04-25T08:31:45.834Z,95.81
2023-04-25T08:34:12.518Z,97.80
2023-04-25T08:36:40.431Z,94.36
2023-04-25T08:39:07.965Z,99.04
2023-04-25T08:41:34.526Z,98.93
2023-04-25T08:44:01.938Z,100.00
2023-04-25T08:46:28.865Z,100.00
2023-04-25T08:48:59.042Z,100.00
2023-04-25T08:51:26.854Z,100.00
2023-04-25T08:53:54.396Z,98.05
2023-04-25T08:56:26.243Z,100.00
2023-04-25T08:58:53.097Z,100.00
2023-04-25T09:01:19.788Z,100.00
2023-04-25T09:03:48.193Z,100.00
2023-04-25T09:06:15.281Z,100.00
2023-04-25T09:08:41.757Z,100.00
2023-04-25T09:11:08.627Z,100.00
2023-04-25T09:13:35.230Z,100.00
2023-04-25T09:16:01.957Z,100.00
2023-04-25T09:18:30.261Z,100.00
2023-04-25T09:21:01.799Z,100.00
2023-04-25T09:23:28.577Z,100.00
2023-04-25T09:25:55.023Z,100.00
2023-04-25T09:28:27.367Z,100.00
2023-04-25T09:31:01.008Z,100.00
2023-04-25T09:33:31.396Z,100.00
2023-04-25T09:36:08.669Z,100.00
2023-04-25T09:38:45.553Z,100.00
2023-04-25T09:41:12.461Z,100.00
2023-04-25T09:43:39.323Z,100.00
2023-04-25T09:46:12.956Z,93.47
2023-04-25T09:48:39.446Z,97.65
2023-04-25T09:51:14.822Z,93.38
2023-04-25T09:53:43.270Z,94.36
2023-04-25T09:56:10.652Z,94.72
2023-04-25T09:58:37.835Z,91.65
2023-04-25T10:01:05.178Z,94.30
2023-04-25T10:03:32.942Z,98.42
2023-04-25T10:06:04.322Z,97.86
2023-04-25T10:08:32.982Z,92.08
2023-04-25T10:11:01.301Z,84.93
2023-04-25T10:13:29.001Z,87.91
2023-04-25T10:15:56.023Z,88.47
2023-04-25T10:18:22.574Z,88.59
2023-04-25T10:20:50.035Z,88.29
2023-04-25T10:23:17.997Z,85.96
2023-04-25T10:25:44.863Z,82.07
2023-04-25T10:28:11.518Z,86.88
2023-04-25T10:30:37.983Z,84.93
2023-04-25T10:33:17.108Z,82.39
2023-04-25T10:35:45.846Z,86.21
2023-04-25T10:38:14.617Z,81.55
2023-04-25T10:40:41.003Z,80.94
2023-04-25T10:43:27.512Z,82.61
2023-04-25T10:45:53.905Z,77.87
2023-04-25T10:48:30.567Z,77.11
2023-04-25T10:51:09.782Z,73.10
2023-04-25T10:53:36.376Z,71.18
2023-04-25T10:56:19.789Z,75.17
2023-04-25T10:58:47.245Z,67.41
2023-04-25T11:01:16.512Z,71.11
2023-04-25T11:03:46.661Z,62.72
2023-04-25T11:06:33.462Z,62.54
2023-04-25T11:09:01.871Z,63.54
2023-04-25T11:11:30.085Z,68.29
2023-04-25T11:13:56.452Z,66.48
2023-04-25T11:16:28.327Z,66.09
2023-04-25T11:18:58.048Z,63.98
2023-04-25T11:21:24.733Z,64.99
2023-04-25T11:23:53.416Z,62.91
2023-04-25T11:26:21.469Z,63.87
2023-04-25T11:28:49.896Z,59.57
2023-04-25T11:31:16.574Z,59.28
2023-04-25T11:33:43.643Z,57.26
2023-04-25T11:36:10.648Z,55.92
2023-04-25T11:38:37.060Z,55.72
2023-04-25T11:41:03.492Z,57.57
2023-04-25T11:43:29.990Z,57.45
2023-04-25T11:45:56.653Z,57.94
2023-04-25T11:48:25.849Z,59.10
2023-04-25T11:50:52.890Z,60.30
2023-04-25T11:53:19.377Z,61.00
2023-04-25T11:55:46.280Z,61.22
2023-04-25T11:58:14.758Z,58.00
2023-04-25T12:00:42.964Z,59.82
2023-04-25T12:03:18.543Z,59.28
2023-04-25T12:05:46.119Z,60.18
2023-04-25T12:08:13.242Z,55.88
2023-04-25T12:10:44.023Z,59.19
2023-04-25T12:13:24.101Z,58.50
2023-04-25T12:15:51.473Z,57.67
2023-04-25T12:18:22.232Z,57.71
2023-04-25T12:20:48.670Z,56.99
2023-04-25T12:23:15.178Z,55.48
2023-04-25T12:25:43.087Z,54.90
2023-04-25T12:28:13.157Z,54.04
2023-04-25T12:31:00.050Z,54.17
2023-04-25T12:33:28.537Z,51.09
2023-04-25T12:35:55.262Z,51.38
2023-04-25T12:38:23.081Z,51.44
2023-04-25T12:40:49.475Z,50.50
2023-04-25T12:43:16.116Z,50.79
2023-04-25T12:45:42.498Z,49.23
2023-04-25T12:48:09.111Z,49.88
2023-04-25T12:50:35.559Z,48.94
2023-04-25T12:53:02.982Z,50.00
2023-04-25T12:55:29.449Z,48.90
2023-04-25T12:57:55.854Z,49.78
2023-04-25T13:00:22.261Z,50.36
2023-04-25T13:02:48.791Z,48.94
2023-04-25T13:05:15.333Z,48.87
2023-04-25T13:07:42.032Z,47.70
2023-04-25T13:10:08.643Z,48.13
2023-04-25T13:12:35.075Z,46.38
2023-04-25T13:15:01.494Z,44.97
2023-04-25T13:17:28.808Z,45.31
2023-04-25T13:19:55.403Z,45.76
2023-04-25T13:22:22.833Z,47.49
2023-04-25T13:24:49.187Z,47.59
2023-04-25T13:27:15.640Z,47.90
2023-04-25T13:29:42.647Z,47.37
2023-04-25T13:32:10.098Z,47.52
2023-04-25T13:34:38.316Z,45.46
2023-04-25T13:37:04.721Z,48.56
2023-04-25T13:39:31.122Z,47.58
2023-04-25T13:42:10.709Z,48.45
2023-04-25T13:44:37.035Z,47.34
2023-04-25T13:47:03.730Z,49.81
2023-04-25T13:49:30.191Z,50.37
2023-04-25T13:51:56.605Z,50.06
2023-04-25T13:54:23.748Z,50.36
2023-04-25T13:56:50.400Z,48.97
2023-04-25T13:59:17.130Z,50.86
2023-04-25T14:01:43.698Z,50.22
2023-04-25T14:04:10.274Z,48.01
2023-04-25T14:06:36.764Z,49.45
2023-04-25T14:09:05.229Z,48.45
2023-04-25T14:11:31.632Z,49.24
2023-04-25T14:13:58.002Z,50.86
2023-04-25T14:16:24.554Z,50.76
2023-04-25T14:18:51.264Z,48.83
2023-04-25T14:21:17.654Z,51.09
2023-04-25T14:23:44.033Z,49.37
2023-04-25T14:26:13.533Z,49.95
2023-04-25T14:28:40.083Z,51.12
2023-04-25T14:31:06.540Z,50.48
2023-04-25T14:33:32.970Z,51.64
2023-04-25T14:35:59.364Z,50.73
2023-04-25T14:38:26.629Z,51.09
2023-04-25T14:40:54.845Z,51.20
2023-04-25T14:43:21.224Z,50.37
2023-04-25T14:45:47.732Z,51.37
2023-04-25T14:48:14.289Z,51.19
2023-04-25T14:50:40.920Z,51.32
2023-04-25T14:53:07.379Z,50.66
2023-04-25T14:55:34.783Z,51.24
2023-04-25T14:58:02.046Z,50.47
2023-04-25T15:00:28.555Z,50.65
2023-04-25T15:02:57.077Z,49.39
2023-04-25T15:05:23.906Z,49.49
2023-04-25T15:07:50.665Z,50.71
2023-04-25T15:10:18.101Z,51.02
2023-04-25T15:12:46.898Z,48.43
2023-04-25T15:15:17.569Z,49.76
2023-04-25T15:17:51.754Z,51.37
2023-04-25T15:20:18.197Z,52.19
2023-04-25T15:22:45.900Z,51.11
2023-04-25T15:25:12.758Z,51.48
2023-04-25T15:27:42.731Z,52.24
2023-04-25T15:30:12.190Z,51.96
2023-04-25T15:32:38.647Z,53.24
2023-04-25T15:35:06.970Z,52.76
2023-04-25T15:37:34.937Z,53.74
2023-04-25T15:40:10.068Z,54.64
2023-04-25T15:42:39.896Z,53.47
2023-04-25T15:45:07.510Z,54.96
2023-04-25T15:47:38.190Z,55.75
2023-04-25T15:50:06.497Z,55.44
2023-04-25T15:52:33.144Z,55.49
2023-04-25T15:54:59.617Z,56.27
2023-04-25T15:57:26.276Z,57.22
2023-04-25T15:59:52.691Z,56.56
2023-04-25T16:02:19.683Z,56.38
2023-04-25T16:04:47.113Z,56.85
2023-04-25T16:07:14.376Z,56.13
2023-04-25T16:09:41.114Z,56.91
2023-04-25T16:12:08.544Z,57.95
2023-04-25T16:14:34.956Z,56.76
2023-04-25T16:17:01.337Z,55.59
2023-04-25T16:19:29.728Z,56.63
2023-04-25T16:21:56.362Z,56.38
2023-04-25T16:24:23.210Z,56.81
2023-04-25T16:26:49.612Z,56.43
2023-04-25T16:29:17.704Z,56.53
2023-04-25T16:31:44.568Z,57.74
2023-04-25T16:34:11.012Z,57.64
2023-04-25T16:36:37.474Z,58.28
2023-04-25T16:39:03.959Z,56.74
2023-04-25T16:41:30.464Z,56.64
2023-04-25T16:43:56.854Z,56.57
2023-04-25T16:46:23.881Z,56.30
2023-04-25T16:48:50.538Z,56.46
2023-04-25T16:51:17.140Z,57.26
2023-04-25T16:53:43.776Z,55.51
2023-04-25T16:56:10.264Z,56.93
2023-04-25T16:58:36.690Z,56.25
2023-04-25T17:01:03.187Z,56.14
2023-04-25T17:03:29.842Z,57.34
2023-04-25T17:05:57.477Z,56.92
2023-04-25T17:08:24.349Z,57.97
2023-04-25T17:10:50.866Z,56.75
2023-04-25T17:13:17.324Z,56.95
2023-04-25T17:15:43.821Z,57.59
2023-04-25T17:18:10.983Z,57.78
2023-04-25T17:20:37.761Z,57.71
2023-04-25T17:23:04.228Z,58.22
2023-04-25T17:25:31.243Z,58.38
2023-04-25T17:27:57.653Z,58.37
2023-04-25T17:30:24.181Z,58.44
2023-04-25T17:32:50.629Z,60.04
2023-04-25T17:35:17.116Z,59.28
2023-04-25T17:37:43.910Z,59.21
2023-04-25T17:40:13.229Z,58.60
2023-04-25T17:42:39.692Z,58.85
2023-04-25T17:45:06.575Z,59.14
2023-04-25T17:47:33.224Z,60.22
2023-04-25T17:49:59.754Z,59.16
2023-04-25T17:52:28.651Z,60.90
2023-04-25T17:54:55.042Z,59.86
2023-04-25T17:57:25.283Z,60.60
2023-04-25T17:59:51.888Z,60.89
2023-04-25T18:02:18.390Z,60.94
2023-04-25T18:04:45.013Z,62.82
2023-04-25T18:07:11.500Z,61.76
2023-04-25T18:09:38.052Z,61.48
2023-04-25T18:12:04.647Z,62.33
2023-04-25T18:14:31.717Z,63.04
2023-04-25T18:16:58.133Z,63.76
2023-04-25T18:19:24.530Z,64.45
2023-04-25T18:21:54.218Z,64.15
2023-04-25T18:24:21.477Z,64.22
2023-04-25T18:26:48.750Z,65.26
2023-04-25T18:29:29.008Z,66.01
2023-04-25T18:31:58.463Z,65.88
2023-04-25T18:34:27.143Z,66.18
2023-04-25T18:36:56.013Z,66.61
2023-04-25T18:39:24.307Z,64.15
2023-04-25T18:41:58.158Z,66.32
2023-04-25T18:44:28.229Z,63.67
2023-04-25T18:46:54.748Z,66.07
2023-04-25T18:49:22.422Z,64.44
2023-04-25T18:51:49.102Z,66.66
2023-04-25T18:54:15.680Z,62.68
2023-04-25T18:56:42.086Z,63.03
2023-04-25T18:59:08.522Z,62.56
2023-04-25T19:01:35.287Z,61.90
2023-04-25T19:04:05.167Z,61.60
2023-04-25T19:06:33.096Z,62.04
2023-04-25T19:08:59.472Z,60.52
2023-04-25T19:11:25.907Z,59.54
2023-04-25T19:13:55.578Z,60.03
2023-04-25T19:16:22.418Z,60.29
2023-04-25T19:18:49.094Z,59.89
2023-04-25T19:21:15.717Z,59.93
2023-04-25T19:23:42.096Z,59.26
2023-04-25T19:26:08.558Z,58.96
2023-04-25T19:28:35.345Z,59.38
2023-04-25T19:31:01.812Z,61.81
2023-04-25T19:33:28.480Z,60.57
2023-04-25T19:35:55.073Z,61.89
2023-04-25T19:38:21.729Z,62.69
2023-04-25T19:40:49.168Z,65.08
2023-04-25T19:43:15.937Z,64.04
2023-04-25T19:45:42.546Z,65.85
2023-04-25T19:48:10.437Z,64.34
2023-04-25T19:50:39.332Z,68.15
2023-04-25T19:53:06.020Z,65.80
2023-04-25T19:55:32.887Z,68.39
2023-04-25T19:57:59.400Z,65.90
2023-04-25T20:00:25.782Z,67.33
2023-04-25T20:02:52.717Z,66.60
2023-04-25T20:05:19.219Z,65.38
2023-04-25T20:07:46.012Z,68.23
2023-04-25T20:10:16.455Z,69.68
2023-04-25T20:12:44.353Z,70.50
2023-04-25T20:15:11.795Z,71.90
2023-04-25T20:17:45.277Z,70.16
2023-04-25T20:20:12.262Z,68.71
2023-04-25T20:22:40.277Z,69.13
2023-04-25T20:25:08.260Z,74.23
2023-04-25T20:27:34.705Z,73.92
2023-04-25T20:30:05.028Z,73.32
2023-04-25T20:32:34.613Z,70.70
2023-04-25T20:35:02.172Z,66.63
2023-04-25T20:37:31.437Z,67.91
2023-04-25T20:40:01.473Z,69.09
2023-04-25T20:42:28.164Z,67.01
2023-04-25T20:44:54.711Z,70.07
2023-04-25T20:47:21.241Z,71.92
2023-04-25T20:49:47.971Z,68.91
2023-04-25T20:52:14.398Z,70.89
2023-04-25T20:54:41.577Z,69.06
2023-04-25T20:57:08.065Z,67.34
2023-04-25T20:59:34.441Z,69.44
2023-04-25T21:02:00.944Z,73.98
2023-04-25T21:04:27.601Z,78.25
2023-04-25T21:06:54.072Z,78.91
2023-04-25T21:09:20.455Z,77.22
2023-04-25T21:11:47.741Z,79.67
2023-04-25T21:14:14.160Z,76.18
2023-04-25T21:16:42.525Z,74.01
2023-04-25T21:19:09.569Z,76.43
2023-04-25T21:21:36.178Z,74.10
2023-04-25T21:24:02.591Z,77.79
2023-04-25T21:26:29.011Z,73.78
2023-04-25T21:28:55.451Z,75.53
2023-04-25T21:31:22.207Z,74.57
2023-04-25T21:33:48.591Z,76.89
2023-04-25T21:36:14.951Z,77.51
2023-04-25T21:38:41.343Z,73.85
2023-04-25T21:41:07.730Z,77.72
2023-04-25T21:43:34.098Z,75.97
2023-04-25T21:48:29.836Z,79.70
2023-04-25T21:50:56.457Z,80.51
2023-04-25T21:53:22.930Z,81.79
2023-04-25T21:55:49.343Z,82.34
2023-04-25T21:58:15.820Z,77.29
2023-04-25T22:00:42.598Z,71.70
2023-04-25T22:03:09.375Z,73.23
2023-04-25T22:05:36.739Z,67.24
2023-04-25T22:08:03.705Z,67.51
2023-04-25T22:10:30.148Z,67.87
2023-04-25T22:12:56.732Z,64.03
2023-04-25T22:15:26.339Z,64.72
2023-04-25T22:17:55.267Z,63.96
2023-04-25T22:20:26.008Z,63.58
2023-04-25T22:22:52.963Z,63.34
2023-04-25T22:25:19.569Z,64.26
2023-04-25T22:27:45.997Z,63.59
2023-04-25T22:30:15.374Z,63.00
2023-04-25T22:32:42.176Z,64.85
2023-04-25T22:35:09.267Z,65.53
2023-04-25T22:37:35.980Z,66.81
2023-04-25T22:40:06.805Z,65.80
2023-04-25T22:42:37.072Z,67.45
2023-04-25T22:45:04.588Z,66.38
2023-04-25T22:47:31.104Z,64.60
2023-04-25T22:49:57.949Z,65.17
2023-04-25T22:52:24.346Z,66.59
2023-04-25T22:54:50.730Z,67.45
2023-04-25T22:57:17.189Z,69.22
2023-04-25T22:59:44.190Z,72.80
2023-04-25T23:02:10.656Z,71.41
2023-04-25T23:04:37.768Z,74.04
2023-04-25T23:07:04.243Z,74.03
2023-04-25T23:09:30.933Z,72.61
2023-04-25T23:11:57.397Z,76.76
2023-04-25T23:14:24.673Z,81.67
2023-04-25T23:16:51.169Z,81.48
2023-04-25T23:19:17.847Z,82.89
2023-04-25T23:21:44.232Z,83.12
2023-04-25T23:24:10.977Z,86.69
2023-04-25T23:26:37.352Z,87.42
2023-04-25T23:29:05.112Z,89.37
2023-04-25T23:31:31.546Z,85.31
2023-04-25T23:33:58.078Z,85.85
2023-04-25T23:36:24.858Z,88.85
2023-04-25T23:38:52.440Z,81.79
2023-04-25T23:41:19.012Z,84.58
2023-04-25T23:43:45.754Z,87.29
2023-04-25T23:46:12.515Z,82.60
2023-04-25T23:48:39.054Z,84.20
2023-04-25T23:51:05.443Z,84.65
2023-04-25T23:53:31.888Z,84.64
2023-04-25T23:55:58.305Z,84.77
2023-04-25T23:58:24.853Z,88.42
